createdAt,value
2018-05-04T00:00:33.435Z,0
2018-05-04T00:01:13.956Z,0
2018-05-04T00:01:54.477Z,0
2018-05-04T00:02:35.000Z,0
2018-05-04T00:03:15.527Z,0
2018-05-04T00:03:56.129Z,0
2018-05-04T00:04:36.588Z,0
2018-05-04T00:05:17.120Z,0
2018-05-04T00:05:57.644Z,0
2018-05-04T00:06:38.167Z,0
2018-05-04T00:07:18.691Z,0
2018-05-04T00:07:59.216Z,0
2018-05-04T00:08:39.733Z,0
2018-05-04T00:09:21.209Z,0
2018-05-04T00:10:01.737Z,0
2018-05-04T00:10:42.273Z,0
2018-05-04T00:11:22.782Z,0
2018-05-04T00:12:03.300Z,0
2018-05-04T00:12:43.828Z,0
2018-05-04T00:13:24.364Z,0
2018-05-04T00:14:04.886Z,0
2018-05-04T00:14:45.413Z,0
2018-05-04T00:15:25.938Z,0
2018-05-04T00:16:06.456Z,0
2018-05-04T00:16:46.981Z,0
2018-05-04T00:17:27.505Z,0
2018-05-04T00:18:08.033Z,0
2018-05-04T00:18:48.572Z,0
2018-05-04T00:19:29.096Z,0
2018-05-04T00:20:09.621Z,0
2018-05-04T00:20:50.125Z,0
2018-05-04T00:21:30.657Z,0
2018-05-04T00:22:12.074Z,0
2018-05-04T00:22:52.565Z,0
2018-05-04T00:23:33.057Z,0
2018-05-04T00:24:14.350Z,0
2018-05-04T00:24:54.029Z,0
2018-05-04T00:25:34.525Z,0
2018-05-04T00:26:15.024Z,0
2018-05-04T00:26:55.537Z,0
2018-05-04T00:27:36.054Z,0
2018-05-04T00:28:16.592Z,0
2018-05-04T00:28:57.117Z,0
2018-05-04T00:29:37.646Z,0
2018-05-04T00:30:18.175Z,0
2018-05-04T00:30:58.707Z,0
2018-05-04T00:31:39.243Z,0
2018-05-04T00:32:19.772Z,0
2018-05-04T00:33:00.308Z,0
2018-05-04T00:33:40.834Z,0
2018-05-04T00:34:21.356Z,0
2018-05-04T00:35:01.885Z,0
2018-05-04T00:35:42.413Z,0
2018-05-04T00:36:22.936Z,0
2018-05-04T00:37:04.304Z,0
2018-05-04T00:37:44.830Z,0
2018-05-04T00:38:25.363Z,0
2018-05-04T00:39:05.887Z,0
2018-05-04T00:39:46.408Z,0
2018-05-04T00:40:26.933Z,0
2018-05-04T00:41:07.462Z,0
2018-05-04T00:41:47.997Z,0
2018-05-04T00:42:28.522Z,0
2018-05-04T00:43:09.048Z,0
2018-05-04T00:43:49.578Z,0
2018-05-04T00:44:30.126Z,0
2018-05-04T00:45:10.634Z,0
2018-05-04T00:45:51.127Z,0
2018-05-04T00:46:31.676Z,0
2018-05-04T00:47:12.208Z,0
2018-05-04T00:47:52.720Z,0
2018-05-04T00:48:33.251Z,0
2018-05-04T00:49:13.775Z,0
2018-05-04T00:49:54.307Z,0
2018-05-04T00:50:34.834Z,0
2018-05-04T00:51:15.355Z,0
2018-05-04T00:51:55.880Z,0
2018-05-04T00:52:36.409Z,0
2018-05-04T00:53:16.919Z,0
2018-05-04T00:53:57.436Z,0
2018-05-04T00:54:37.956Z,0
2018-05-04T00:55:18.490Z,0
2018-05-04T00:55:59.858Z,0
2018-05-04T00:56:39.533Z,0
2018-05-04T00:57:20.040Z,0
2018-05-04T00:58:00.547Z,0
2018-05-04T00:58:41.077Z,0
2018-05-04T00:59:22.364Z,0
2018-05-04T01:00:02.879Z,0
2018-05-04T01:00:44.859Z,0
2018-05-04T01:01:24.449Z,0
2018-05-04T01:02:04.985Z,0
2018-05-04T01:02:45.476Z,0
2018-05-04T01:03:26.008Z,0
2018-05-04T01:04:06.533Z,0
2018-05-04T01:04:47.016Z,0
2018-05-04T01:05:27.533Z,0
2018-05-04T01:06:08.053Z,0
2018-05-04T01:06:49.361Z,0
2018-05-04T01:07:29.090Z,0
2018-05-04T01:08:09.619Z,0
2018-05-04T01:08:50.142Z,0
2018-05-04T01:09:30.664Z,0
2018-05-04T01:10:11.189Z,0
2018-05-04T01:10:51.714Z,0
2018-05-04T01:11:32.247Z,0
2018-05-04T01:12:12.764Z,0
2018-05-04T01:12:53.281Z,0
2018-05-04T01:13:33.811Z,0
2018-05-04T01:14:14.339Z,0
2018-05-04T01:14:54.866Z,0
2018-05-04T01:15:35.391Z,0
2018-05-04T01:16:16.867Z,0
2018-05-04T01:16:56.456Z,0
2018-05-04T01:17:36.971Z,0
2018-05-04T01:18:17.498Z,0
2018-05-04T01:18:58.869Z,0
2018-05-04T01:19:38.547Z,0
2018-05-04T01:20:19.059Z,0
2018-05-04T01:20:59.570Z,0
2018-05-04T01:21:40.166Z,0
2018-05-04T01:22:20.595Z,0
2018-05-04T01:23:01.125Z,0
2018-05-04T01:23:41.654Z,0
2018-05-04T01:24:22.173Z,0
2018-05-04T01:25:02.689Z,0
2018-05-04T01:25:43.228Z,0
2018-05-04T01:26:24.326Z,0
2018-05-04T01:27:04.832Z,0
2018-05-04T01:27:45.357Z,0
2018-05-04T01:28:25.883Z,0
2018-05-04T01:29:06.416Z,0
2018-05-04T01:29:46.942Z,0
2018-05-04T01:30:27.466Z,0
2018-05-04T01:31:07.999Z,0
2018-05-04T01:31:48.517Z,0
2018-05-04T01:32:29.036Z,0
2018-05-04T01:33:09.570Z,0
2018-05-04T01:33:50.869Z,0
2018-05-04T01:34:31.497Z,0
2018-05-04T01:35:12.029Z,0
2018-05-04T01:35:52.565Z,0
2018-05-04T01:36:33.090Z,0
2018-05-04T01:37:13.618Z,0
2018-05-04T01:37:54.145Z,0
2018-05-04T01:38:34.675Z,0
2018-05-04T01:39:15.200Z,0
2018-05-04T01:39:55.715Z,0
2018-05-04T01:40:36.245Z,0
2018-05-04T01:41:16.771Z,0
2018-05-04T01:41:57.275Z,0
2018-05-04T01:42:37.780Z,0
2018-05-04T01:43:18.306Z,0
2018-05-04T01:43:58.827Z,0
2018-05-04T01:44:39.352Z,0
2018-05-04T01:45:19.876Z,0
2018-05-04T01:46:00.406Z,0
2018-05-04T01:46:40.937Z,0
2018-05-04T01:47:21.469Z,0
2018-05-04T01:48:01.983Z,0
2018-05-04T01:48:42.509Z,0
2018-05-04T01:49:23.032Z,0
2018-05-04T01:50:03.557Z,0
2018-05-04T01:50:44.062Z,0
2018-05-04T01:51:24.595Z,0
2018-05-04T01:52:05.119Z,0
2018-05-04T01:52:45.639Z,0
2018-05-04T01:53:26.864Z,0
2018-05-04T01:54:07.395Z,0
2018-05-04T01:54:47.923Z,0
2018-05-04T01:55:28.449Z,0
2018-05-04T01:56:08.979Z,0
2018-05-04T01:56:49.503Z,0
2018-05-04T01:57:30.020Z,0
2018-05-04T01:58:10.541Z,0
2018-05-04T01:58:51.074Z,0
2018-05-04T01:59:31.602Z,0
2018-05-04T02:00:12.094Z,0
2018-05-04T02:00:52.599Z,0
2018-05-04T02:01:33.138Z,0
2018-05-04T02:02:13.662Z,0
2018-05-04T02:02:54.181Z,0
2018-05-04T02:03:34.705Z,0
2018-05-04T02:04:15.225Z,0
2018-05-04T02:04:55.751Z,0
2018-05-04T02:05:36.250Z,0
2018-05-04T02:06:16.772Z,0
2018-05-04T02:06:57.296Z,0
2018-05-04T02:07:37.825Z,0
2018-05-04T02:08:18.351Z,0
2018-05-04T02:08:58.877Z,0
2018-05-04T02:09:39.871Z,0
2018-05-04T02:10:20.429Z,0
2018-05-04T02:11:00.955Z,0
2018-05-04T02:11:41.492Z,0
2018-05-04T02:12:22.020Z,0
2018-05-04T02:13:02.546Z,0
2018-05-04T02:13:43.074Z,0
2018-05-04T02:14:23.605Z,0
2018-05-04T02:15:04.127Z,0
2018-05-04T02:15:44.657Z,0
2018-05-04T02:16:25.186Z,0
2018-05-04T02:17:05.711Z,0
2018-05-04T02:17:46.235Z,0
2018-05-04T02:18:26.761Z,0
2018-05-04T02:19:07.282Z,0
2018-05-04T02:19:47.802Z,0
2018-05-04T02:20:28.329Z,0
2018-05-04T02:21:08.854Z,0
2018-05-04T02:21:49.383Z,0
2018-05-04T02:22:29.921Z,0
2018-05-04T02:23:10.451Z,0
2018-05-04T02:23:50.949Z,0
2018-05-04T02:24:31.468Z,0
2018-05-04T02:25:12.005Z,0
2018-05-04T02:25:52.488Z,0
2018-05-04T02:26:33.026Z,0
2018-05-04T02:27:13.536Z,0
2018-05-04T02:27:54.059Z,0
2018-05-04T02:28:34.575Z,0
2018-05-04T02:29:15.105Z,0
2018-05-04T02:29:55.631Z,0
2018-05-04T02:30:36.165Z,0
2018-05-04T02:31:16.683Z,0
2018-05-04T02:31:57.216Z,0
2018-05-04T02:32:37.744Z,0
2018-05-04T02:33:18.276Z,0
2018-05-04T02:33:58.799Z,0
2018-05-04T02:34:39.340Z,0
2018-05-04T02:35:19.847Z,0
2018-05-04T02:36:00.376Z,0
2018-05-04T02:36:40.911Z,0
2018-05-04T02:37:21.439Z,0
2018-05-04T02:38:01.981Z,0
2018-05-04T02:38:43.450Z,0
2018-05-04T02:39:23.963Z,0
2018-05-04T02:40:04.480Z,0
2018-05-04T02:40:44.982Z,0
2018-05-04T02:41:25.503Z,0
2018-05-04T02:42:06.007Z,0
2018-05-04T02:42:46.490Z,0
2018-05-04T02:43:27.008Z,0
2018-05-04T02:44:07.531Z,0
2018-05-04T02:44:48.047Z,0
2018-05-04T02:45:28.585Z,0
2018-05-04T02:46:09.109Z,0
2018-05-04T02:46:49.633Z,0
2018-05-04T02:47:30.167Z,0
2018-05-04T02:48:10.694Z,0
2018-05-04T02:48:51.216Z,0
2018-05-04T02:49:31.747Z,0
2018-05-04T02:50:12.274Z,0
2018-05-04T02:50:52.803Z,0
2018-05-04T02:51:33.328Z,0
2018-05-04T02:52:13.857Z,0
2018-05-04T02:52:54.355Z,0
2018-05-04T02:53:34.874Z,0
2018-05-04T02:54:15.406Z,0
2018-05-04T02:54:55.917Z,0
2018-05-04T02:55:36.442Z,0
2018-05-04T02:56:16.980Z,0
2018-05-04T02:56:57.508Z,0
2018-05-04T02:57:38.039Z,0
2018-05-04T02:58:18.558Z,0
2018-05-04T02:58:59.344Z,0
2018-05-04T02:59:39.870Z,0
2018-05-04T03:00:20.380Z,0
2018-05-04T03:01:00.908Z,0
2018-05-04T03:01:41.453Z,0
2018-05-04T03:02:21.990Z,0
2018-05-04T03:03:02.499Z,0
2018-05-04T03:03:43.026Z,0
2018-05-04T03:04:23.554Z,0
2018-05-04T03:05:04.083Z,0
2018-05-04T03:05:44.624Z,0
2018-05-04T03:06:25.960Z,0
2018-05-04T03:07:06.477Z,0
2018-05-04T03:07:47.003Z,0
2018-05-04T03:08:27.518Z,0
2018-05-04T03:09:08.037Z,0
2018-05-04T03:09:48.578Z,0
2018-05-04T03:10:29.117Z,0
2018-05-04T03:11:09.646Z,0
2018-05-04T03:11:50.157Z,0
2018-05-04T03:12:30.650Z,0
2018-05-04T03:13:11.165Z,0
2018-05-04T03:13:51.621Z,0
2018-05-04T03:14:32.159Z,0
2018-05-04T03:15:12.616Z,0
2018-05-04T03:15:53.146Z,0
2018-05-04T03:16:33.617Z,0
2018-05-04T03:17:14.096Z,0
2018-05-04T03:17:54.613Z,0
2018-05-04T03:18:35.215Z,0
2018-05-04T03:19:15.697Z,0
2018-05-04T03:19:56.253Z,0
2018-05-04T03:20:37.383Z,0
2018-05-04T03:21:17.345Z,0
2018-05-04T03:21:57.940Z,0
2018-05-04T03:22:38.331Z,0
2018-05-04T03:23:20.121Z,0
2018-05-04T03:24:00.741Z,0
2018-05-04T03:24:41.595Z,0
2018-05-04T03:25:22.096Z,0
2018-05-04T03:26:02.597Z,0
2018-05-04T03:26:43.102Z,0
2018-05-04T03:27:23.961Z,0
2018-05-04T03:28:04.540Z,0
2018-05-04T03:28:45.043Z,0
2018-05-04T03:29:25.944Z,0
2018-05-04T03:30:06.339Z,0
2018-05-04T03:30:46.894Z,0
2018-05-04T03:31:27.388Z,0
2018-05-04T03:32:07.883Z,0
2018-05-04T03:32:48.394Z,0
2018-05-04T03:33:29.353Z,0
2018-05-04T03:34:09.861Z,0
2018-05-04T03:34:51.442Z,0
2018-05-04T03:35:32.188Z,0
2018-05-04T03:36:12.797Z,0
2018-05-04T03:36:53.288Z,0
2018-05-04T03:37:33.806Z,0
2018-05-04T03:38:14.269Z,0
2018-05-04T03:38:54.809Z,0
2018-05-04T03:39:35.313Z,0
2018-05-04T03:40:15.837Z,0
2018-05-04T03:40:58.078Z,0
2018-05-04T03:41:38.590Z,0
2018-05-04T03:42:19.217Z,0
2018-05-04T03:42:59.832Z,0
2018-05-04T03:43:40.913Z,0
2018-05-04T03:44:21.779Z,0
2018-05-04T03:45:02.491Z,0
2018-05-04T03:45:43.376Z,0
2018-05-04T03:46:23.875Z,0
2018-05-04T03:47:04.377Z,0
2018-05-04T03:47:45.474Z,0
2018-05-04T03:48:26.029Z,0
2018-05-04T03:49:06.525Z,0
2018-05-04T03:49:47.055Z,0
2018-05-04T03:50:27.544Z,0
2018-05-04T03:51:08.061Z,0
2018-05-04T03:51:48.581Z,0
2018-05-04T03:52:29.095Z,0
2018-05-04T03:53:09.616Z,0
2018-05-04T03:53:50.121Z,0
2018-05-04T03:54:31.407Z,0
2018-05-04T03:55:11.344Z,0
2018-05-04T03:55:51.885Z,0
2018-05-04T03:56:32.366Z,0
2018-05-04T03:57:12.867Z,0
2018-05-04T03:57:53.443Z,0
2018-05-04T03:58:33.884Z,0
2018-05-04T03:59:15.898Z,0
2018-05-04T03:59:55.772Z,0
2018-05-04T04:00:36.272Z,0
2018-05-04T04:01:16.819Z,0
2018-05-04T04:01:57.317Z,0
2018-05-04T04:02:37.799Z,0
2018-05-04T04:03:18.336Z,0
2018-05-04T04:03:58.821Z,0
2018-05-04T04:04:39.318Z,0
2018-05-04T04:05:19.817Z,0
2018-05-04T04:06:00.322Z,5
2018-05-04T04:06:40.836Z,5
2018-05-04T04:07:21.368Z,5
2018-05-04T04:08:01.862Z,5
2018-05-04T04:08:42.354Z,5
2018-05-04T04:09:22.862Z,5
2018-05-04T04:10:03.356Z,5
2018-05-04T04:10:45.393Z,5
2018-05-04T04:11:25.273Z,10
2018-05-04T04:12:05.765Z,10
2018-05-04T04:12:46.260Z,15
2018-05-04T04:13:26.784Z,15
2018-05-04T04:14:07.337Z,20
2018-05-04T04:14:47.842Z,20
2018-05-04T04:15:28.506Z,20
2018-05-04T04:16:08.872Z,20
2018-05-04T04:16:49.346Z,25
2018-05-04T04:17:29.866Z,25
2018-05-04T04:18:10.350Z,25
2018-05-04T04:18:51.894Z,25
2018-05-04T04:19:31.393Z,25
2018-05-04T04:20:11.847Z,25
2018-05-04T04:20:52.381Z,25
2018-05-04T04:21:32.909Z,25
2018-05-04T04:22:13.435Z,25
2018-05-04T04:22:53.963Z,25
2018-05-04T04:23:34.486Z,25
2018-05-04T04:24:15.010Z,25
2018-05-04T04:24:55.541Z,25
2018-05-04T04:25:36.067Z,25
2018-05-04T04:26:16.601Z,25
2018-05-04T04:26:57.103Z,25
2018-05-04T04:27:37.619Z,25
2018-05-04T04:28:18.231Z,25
2018-05-04T04:28:58.677Z,30
2018-05-04T04:29:39.211Z,30
2018-05-04T04:30:19.741Z,35
2018-05-04T04:31:00.269Z,35
2018-05-04T04:31:40.800Z,35
2018-05-04T04:32:21.313Z,35
2018-05-04T04:33:01.836Z,35
2018-05-04T04:33:42.396Z,35
2018-05-04T04:34:22.878Z,40
2018-05-04T04:35:04.333Z,40
2018-05-04T04:35:44.846Z,45
2018-05-04T04:36:25.374Z,45
2018-05-04T04:37:05.898Z,45
2018-05-04T04:37:47.249Z,45
2018-05-04T04:38:27.770Z,45
2018-05-04T04:39:08.301Z,40
2018-05-04T04:39:48.823Z,40
2018-05-04T04:40:29.354Z,45
2018-05-04T04:41:09.874Z,45
2018-05-04T04:41:50.402Z,50
2018-05-04T04:42:30.927Z,45
2018-05-04T04:43:11.439Z,45
2018-05-04T04:43:51.960Z,50
2018-05-04T04:44:33.400Z,45
2018-05-04T04:45:13.010Z,50
2018-05-04T04:45:53.531Z,50
2018-05-04T04:46:34.053Z,60
2018-05-04T04:47:14.586Z,80
2018-05-04T04:47:55.106Z,90
2018-05-04T04:48:35.679Z,105
2018-05-04T04:49:16.211Z,110
2018-05-04T04:49:56.721Z,110
2018-05-04T04:50:37.246Z,110
2018-05-04T04:51:17.779Z,110
2018-05-04T04:51:58.281Z,110
2018-05-04T04:52:38.811Z,100
2018-05-04T04:53:19.345Z,100
2018-05-04T04:53:59.879Z,95
2018-05-04T04:54:40.394Z,95
2018-05-04T04:55:20.925Z,95
2018-05-04T04:56:01.457Z,90
2018-05-04T04:56:41.986Z,85
2018-05-04T04:57:22.510Z,85
2018-05-04T04:58:03.039Z,85
2018-05-04T04:58:43.567Z,90
2018-05-04T04:59:24.347Z,95
2018-05-04T05:00:04.873Z,105
2018-05-04T05:00:45.407Z,110
2018-05-04T05:01:25.928Z,115
2018-05-04T05:02:09.157Z,125
2018-05-04T05:02:49.679Z,130
2018-05-04T05:03:30.207Z,130
2018-05-04T05:04:10.739Z,140
2018-05-04T05:04:51.271Z,155
2018-05-04T05:05:31.798Z,165
2018-05-04T05:06:12.375Z,180
2018-05-04T05:06:52.955Z,185
2018-05-04T05:07:33.489Z,195
2018-05-04T05:08:14.030Z,200
2018-05-04T05:08:54.619Z,205
2018-05-04T05:09:35.160Z,205
2018-05-04T05:10:15.684Z,195
2018-05-04T05:10:56.215Z,190
2018-05-04T05:11:36.739Z,190
2018-05-04T05:12:17.914Z,195
2018-05-04T05:12:58.453Z,195
2018-05-04T05:13:38.975Z,195
2018-05-04T05:14:19.502Z,195
2018-05-04T05:15:00.053Z,200
2018-05-04T05:15:40.577Z,200
2018-05-04T05:16:21.107Z,205
2018-05-04T05:17:01.629Z,215
2018-05-04T05:17:42.172Z,220
2018-05-04T05:18:22.696Z,230
2018-05-04T05:19:03.227Z,230
2018-05-04T05:19:43.934Z,235
2018-05-04T05:20:24.489Z,245
2018-05-04T05:21:05.018Z,250
2018-05-04T05:21:45.555Z,260
2018-05-04T05:22:26.908Z,260
2018-05-04T05:23:06.590Z,260
2018-05-04T05:23:47.234Z,255
2018-05-04T05:24:27.618Z,295
2018-05-04T05:25:08.110Z,305
2018-05-04T05:25:48.633Z,315
2018-05-04T05:26:29.215Z,325
2018-05-04T05:27:09.708Z,335
2018-05-04T05:27:50.157Z,335
2018-05-04T05:28:31.843Z,340
2018-05-04T05:29:12.364Z,345
2018-05-04T05:29:52.764Z,350
2018-05-04T05:30:33.288Z,355
2018-05-04T05:31:13.886Z,355
2018-05-04T05:31:54.365Z,350
2018-05-04T05:32:34.937Z,345
2018-05-04T05:33:15.407Z,340
2018-05-04T05:33:56.021Z,335
2018-05-04T05:34:36.378Z,335
2018-05-04T05:35:16.922Z,335
2018-05-04T05:35:57.367Z,330
2018-05-04T05:36:37.822Z,330
2018-05-04T05:37:18.319Z,330
2018-05-04T05:37:59.412Z,320
2018-05-04T05:38:39.382Z,310
2018-05-04T05:39:19.821Z,310
2018-05-04T05:40:00.279Z,325
2018-05-04T05:40:40.729Z,345
2018-05-04T05:41:21.310Z,360
2018-05-04T05:42:01.739Z,385
2018-05-04T05:42:42.288Z,365
2018-05-04T05:43:22.819Z,345
2018-05-04T05:44:03.289Z,340
2018-05-04T05:44:43.811Z,320
2018-05-04T05:45:25.175Z,300
2018-05-04T05:46:05.677Z,270
2018-05-04T05:46:46.177Z,260
2018-05-04T05:47:27.430Z,285
2018-05-04T05:48:07.975Z,315
2018-05-04T05:48:48.466Z,315
2018-05-04T05:49:28.986Z,295
2018-05-04T05:50:09.549Z,270
2018-05-04T05:50:50.015Z,280
2018-05-04T05:51:30.572Z,290
2018-05-04T05:52:11.097Z,290
2018-05-04T05:52:51.613Z,305
2018-05-04T05:53:32.040Z,305
2018-05-04T05:54:13.413Z,295
2018-05-04T05:54:53.141Z,290
2018-05-04T05:55:33.540Z,305
2018-05-04T05:56:14.121Z,315
2018-05-04T05:56:54.602Z,320
2018-05-04T05:57:35.116Z,315
2018-05-04T05:58:15.924Z,335
2018-05-04T05:58:56.645Z,380
2018-05-04T05:59:37.819Z,430
2018-05-04T06:00:18.987Z,485
2018-05-04T06:00:59.883Z,530
2018-05-04T06:01:40.457Z,590
2018-05-04T06:02:20.988Z,635
2018-05-04T06:03:01.451Z,655
2018-05-04T06:03:41.914Z,660
2018-05-04T06:04:22.392Z,635
2018-05-04T06:05:03.422Z,600
2018-05-04T06:05:43.451Z,555
2018-05-04T06:06:23.972Z,530
2018-05-04T06:07:04.396Z,540
2018-05-04T06:07:45.325Z,540
2018-05-04T06:08:26.388Z,500
2018-05-04T06:09:06.937Z,440
2018-05-04T06:09:47.360Z,400
2018-05-04T06:10:28.005Z,385
2018-05-04T06:11:08.500Z,370
2018-05-04T06:11:48.998Z,370
2018-05-04T06:12:29.550Z,360
2018-05-04T06:13:10.018Z,360
2018-05-04T06:13:50.486Z,360
2018-05-04T06:14:31.010Z,370
2018-05-04T06:15:11.500Z,370
2018-05-04T06:15:51.959Z,360
2018-05-04T06:16:32.494Z,340
2018-05-04T06:17:13.005Z,305
2018-05-04T06:17:53.525Z,280
2018-05-04T06:18:33.952Z,280
2018-05-04T06:19:14.480Z,290
2018-05-04T06:19:55.025Z,315
2018-05-04T06:20:35.481Z,365
2018-05-04T06:21:16.010Z,415
2018-05-04T06:21:56.536Z,430
2018-05-04T06:22:37.001Z,405
2018-05-04T06:23:17.481Z,360
2018-05-04T06:23:58.064Z,325
2018-05-04T06:24:38.523Z,330
2018-05-04T06:25:19.090Z,355
2018-05-04T06:25:59.626Z,380
2018-05-04T06:26:40.090Z,370
2018-05-04T06:27:20.606Z,335
2018-05-04T06:28:01.278Z,300
2018-05-04T06:28:42.741Z,295
2018-05-04T06:29:23.448Z,320
2018-05-04T06:30:04.572Z,345
2018-05-04T06:30:45.924Z,345
2018-05-04T06:31:25.695Z,340
2018-05-04T06:32:06.122Z,350
2018-05-04T06:32:46.657Z,360
2018-05-04T06:33:27.122Z,375
2018-05-04T06:34:07.645Z,400
2018-05-04T06:34:48.115Z,410
2018-05-04T06:35:28.562Z,405
2018-05-04T06:36:09.152Z,400
2018-05-04T06:36:49.663Z,405
2018-05-04T06:37:30.068Z,420
2018-05-04T06:38:10.564Z,450
2018-05-04T06:38:51.061Z,465
2018-05-04T06:39:31.616Z,460
2018-05-04T06:40:12.050Z,445
2018-05-04T06:40:52.558Z,425
2018-05-04T06:41:33.102Z,415
2018-05-04T06:42:13.590Z,415
2018-05-04T06:42:54.929Z,415
2018-05-04T06:43:34.572Z,405
2018-05-04T06:44:15.064Z,390
2018-05-04T06:44:55.564Z,365
2018-05-04T06:45:36.062Z,340
2018-05-04T06:46:16.548Z,340
2018-05-04T06:46:57.053Z,330
2018-05-04T06:47:37.554Z,320
2018-05-04T06:48:18.076Z,305
2018-05-04T06:48:58.546Z,300
2018-05-04T06:49:39.041Z,295
2018-05-04T06:50:19.540Z,290
2018-05-04T06:51:00.026Z,290
2018-05-04T06:51:40.527Z,295
2018-05-04T06:52:21.024Z,295
2018-05-04T06:53:01.515Z,295
2018-05-04T06:53:42.036Z,295
2018-05-04T06:54:22.513Z,285
2018-05-04T06:55:03.020Z,280
2018-05-04T06:55:44.932Z,275
2018-05-04T06:56:24.974Z,270
2018-05-04T06:57:06.432Z,275
2018-05-04T06:57:45.953Z,280
2018-05-04T06:58:26.482Z,285
2018-05-04T06:59:06.931Z,300
2018-05-04T06:59:47.424Z,330
2018-05-04T07:00:27.894Z,345
2018-05-04T07:01:09.273Z,335
2018-05-04T07:01:50.940Z,325
2018-05-04T07:02:30.265Z,315
2018-05-04T07:03:10.773Z,310
2018-05-04T07:03:51.260Z,305
2018-05-04T07:04:31.747Z,300
2018-05-04T07:05:12.226Z,285
2018-05-04T07:05:52.752Z,270
2018-05-04T07:06:33.252Z,265
2018-05-04T07:07:13.705Z,260
2018-05-04T07:07:54.215Z,255
2018-05-04T07:08:34.688Z,255
2018-05-04T07:09:15.463Z,255
2018-05-04T07:09:55.948Z,255
2018-05-04T07:10:37.145Z,250
2018-05-04T07:11:17.637Z,235
2018-05-04T07:11:58.115Z,235
2018-05-04T07:12:38.614Z,235
2018-05-04T07:13:19.171Z,235
2018-05-04T07:13:59.661Z,240
2018-05-04T07:14:40.153Z,240
2018-05-04T07:15:20.721Z,245
2018-05-04T07:16:01.206Z,245
2018-05-04T07:16:41.659Z,245
2018-05-04T07:17:22.110Z,240
2018-05-04T07:18:02.643Z,235
2018-05-04T07:18:43.722Z,240
2018-05-04T07:19:24.238Z,235
2018-05-04T07:20:04.994Z,235
2018-05-04T07:20:45.438Z,240
2018-05-04T07:21:26.132Z,245
2018-05-04T07:22:06.622Z,240
2018-05-04T07:22:47.187Z,240
2018-05-04T07:23:27.783Z,240
2018-05-04T07:24:08.255Z,240
2018-05-04T07:24:48.805Z,235
2018-05-04T07:25:29.263Z,250
2018-05-04T07:26:09.832Z,270
2018-05-04T07:26:50.287Z,270
2018-05-04T07:27:30.813Z,280
2018-05-04T07:28:11.326Z,310
2018-05-04T07:28:51.831Z,340
2018-05-04T07:29:32.400Z,325
2018-05-04T07:30:12.952Z,330
2018-05-04T07:30:53.385Z,345
2018-05-04T07:31:33.879Z,345
2018-05-04T07:32:14.399Z,350
2018-05-04T07:32:54.973Z,370
2018-05-04T07:33:35.421Z,415
2018-05-04T07:34:15.947Z,435
2018-05-04T07:34:56.423Z,455
2018-05-04T07:35:36.954Z,455
2018-05-04T07:36:17.477Z,470
2018-05-04T07:36:58.702Z,470
2018-05-04T07:37:39.097Z,440
2018-05-04T07:38:19.599Z,425
2018-05-04T07:39:00.102Z,420
2018-05-04T07:39:40.570Z,410
2018-05-04T07:40:21.080Z,410
2018-05-04T07:41:01.602Z,400
2018-05-04T07:41:42.109Z,405
2018-05-04T07:42:22.625Z,405
2018-05-04T07:43:03.118Z,415
2018-05-04T07:43:43.632Z,405
2018-05-04T07:44:24.121Z,395
2018-05-04T07:45:04.632Z,380
2018-05-04T07:45:45.133Z,360
2018-05-04T07:46:25.662Z,350
2018-05-04T07:47:06.295Z,350
2018-05-04T07:47:47.449Z,355
2018-05-04T07:48:27.199Z,370
2018-05-04T07:49:08.452Z,375
2018-05-04T07:49:48.923Z,370
2018-05-04T07:50:29.435Z,375
2018-05-04T07:51:09.928Z,365
2018-05-04T07:51:50.481Z,360
2018-05-04T07:52:31.019Z,355
2018-05-04T07:53:11.537Z,365
2018-05-04T07:53:52.019Z,395
2018-05-04T07:57:11.489Z,510
2018-05-04T07:57:52.027Z,585
2018-05-04T07:58:32.495Z,655
2018-05-04T07:59:13.254Z,720
2018-05-04T07:59:53.730Z,805
2018-05-04T08:00:34.215Z,925
2018-05-04T08:01:14.693Z,1060
2018-05-04T08:01:55.211Z,995
2018-05-04T08:02:35.698Z,930
2018-05-04T08:03:16.873Z,945
2018-05-04T08:03:57.391Z,1020
2018-05-04T08:04:37.877Z,1045
2018-05-04T08:05:18.341Z,1245
2018-05-04T08:05:58.882Z,1515
2018-05-04T08:06:39.399Z,1480
2018-05-04T08:07:19.979Z,1340
2018-05-04T08:08:00.424Z,1265
2018-05-04T08:08:40.947Z,1315
2018-05-04T08:09:21.469Z,1210
2018-05-04T08:10:02.007Z,1365
2018-05-04T08:10:42.528Z,1305
2018-05-04T08:11:23.057Z,1290
2018-05-04T08:12:03.605Z,1570
2018-05-04T08:12:44.144Z,1325
2018-05-04T08:13:24.665Z,1200
2018-05-04T08:14:05.194Z,1315
2018-05-04T08:14:45.723Z,1515
2018-05-04T08:15:26.258Z,1645
2018-05-04T08:16:06.792Z,1135
2018-05-04T08:16:47.311Z,1155
2018-05-04T08:17:27.848Z,1080
2018-05-04T08:18:08.379Z,1100
2018-05-04T08:18:48.906Z,1215
2018-05-04T08:19:29.442Z,1095
2018-05-04T08:20:10.014Z,1050
2018-05-04T08:20:50.514Z,985
2018-05-04T08:21:31.049Z,1040
2018-05-04T08:22:12.877Z,1005
2018-05-04T08:22:53.404Z,895
2018-05-04T08:23:33.935Z,800
2018-05-04T08:24:14.461Z,770
2018-05-04T08:24:55.786Z,855
2018-05-04T08:25:36.322Z,965
2018-05-04T08:26:16.851Z,1025
2018-05-04T08:26:57.373Z,970
2018-05-04T08:27:37.908Z,885
2018-05-04T08:28:18.441Z,830
2018-05-04T08:28:58.967Z,860
2018-05-04T08:29:39.505Z,1135
2018-05-04T08:30:20.035Z,950
2018-05-04T08:31:00.569Z,1000
2018-05-04T08:31:41.102Z,885
2018-05-04T08:32:21.632Z,995
2018-05-04T08:33:02.155Z,965
2018-05-04T08:33:42.769Z,1080
2018-05-04T08:34:24.183Z,1255
2018-05-04T08:35:04.802Z,1695
2018-05-04T08:35:45.243Z,2670
2018-05-04T08:36:25.784Z,2625
2018-05-04T08:37:06.321Z,3375
2018-05-04T08:37:46.847Z,3350
2018-05-04T08:38:27.382Z,3475
2018-05-04T08:39:07.931Z,3265
2018-05-04T08:39:48.452Z,2830
2018-05-04T08:40:28.986Z,2835
2018-05-04T08:41:09.520Z,2700
2018-05-04T08:41:50.726Z,2595
2018-05-04T08:42:30.578Z,2570
2018-05-04T08:43:11.186Z,2620
2018-05-04T08:43:51.653Z,2610
2018-05-04T08:44:32.188Z,2700
2018-05-04T08:45:12.719Z,1870
2018-05-04T08:45:53.255Z,1680
2018-05-04T08:46:33.777Z,2310
2018-05-04T08:47:14.319Z,1510
2018-05-04T08:47:54.846Z,1375
2018-05-04T08:48:35.375Z,1465
2018-05-04T08:49:15.913Z,2065
2018-05-04T08:49:56.445Z,2545
2018-05-04T08:50:36.983Z,2985
2018-05-04T08:51:17.522Z,2365
2018-05-04T08:51:58.052Z,1885
2018-05-04T08:52:38.598Z,2855
2018-05-04T08:53:19.117Z,2320
2018-05-04T08:53:59.642Z,2590
2018-05-04T08:54:40.215Z,1515
2018-05-04T08:55:21.234Z,2700
2018-05-04T08:56:01.278Z,2265
2018-05-04T08:56:42.453Z,2050
2018-05-04T08:57:23.049Z,2745
2018-05-04T08:58:03.547Z,1265
2018-05-04T08:58:44.250Z,1090
2018-05-04T08:59:24.596Z,1065
2018-05-04T09:00:05.131Z,1210
2018-05-04T09:00:45.670Z,2345
2018-05-04T09:01:26.195Z,1450
2018-05-04T09:02:06.737Z,3260
2018-05-04T09:02:48.244Z,2830
2018-05-04T09:03:27.792Z,3660
2018-05-04T09:04:08.327Z,1250
2018-05-04T09:04:48.862Z,1180
2018-05-04T09:05:30.164Z,1460
2018-05-04T09:06:10.448Z,855
2018-05-04T09:06:50.994Z,805
2018-05-04T09:07:32.464Z,850
2018-05-04T09:08:13.013Z,880
2018-05-04T09:08:54.128Z,1050
2018-05-04T09:09:35.294Z,1065
2018-05-04T09:10:16.472Z,1060
2018-05-04T09:10:57.010Z,2335
2018-05-04T09:11:37.602Z,2840
2018-05-04T09:12:18.135Z,3365
2018-05-04T09:12:58.670Z,4065
2018-05-04T09:13:39.199Z,4125
2018-05-04T09:14:19.738Z,4205
2018-05-04T09:15:00.272Z,4020
2018-05-04T09:15:40.815Z,4015
2018-05-04T09:16:23.249Z,4075
2018-05-04T09:17:02.332Z,3455
2018-05-04T09:17:42.861Z,4180
2018-05-04T09:18:23.399Z,3695
2018-05-04T09:19:03.937Z,4685
2018-05-04T09:19:44.522Z,4360
2018-05-04T09:20:25.012Z,2985
2018-05-04T09:21:05.542Z,4495
2018-05-04T09:21:46.081Z,1525
2018-05-04T09:22:26.619Z,1245
2018-05-04T09:23:07.163Z,2520
2018-05-04T09:23:47.704Z,1805
2018-05-04T09:24:28.243Z,1070
2018-05-04T09:25:08.793Z,1665
2018-05-04T09:25:49.335Z,1075
2018-05-04T09:26:29.871Z,940
2018-05-04T09:27:10.413Z,795
2018-05-04T09:27:50.953Z,875
2018-05-04T09:28:31.490Z,910
2018-05-04T09:29:12.760Z,745
2018-05-04T09:29:53.302Z,670
2018-05-04T09:30:33.853Z,610
2018-05-04T09:31:14.356Z,580
2018-05-04T09:31:54.896Z,595
2018-05-04T09:32:35.444Z,680
2018-05-04T09:33:16.096Z,735
2018-05-04T09:33:56.638Z,785
2018-05-04T09:34:37.802Z,780
2018-05-04T09:35:17.722Z,870
2018-05-04T09:35:58.265Z,730
2018-05-04T09:36:38.799Z,650
2018-05-04T09:37:19.384Z,620
2018-05-04T09:37:59.868Z,640